Ankeny, Iowa
Current Conditions -  °F | °C
As of 6:35 AM on Friday 19 Dec 2014 (Local Time) from KIKV Reporting Station
Overcast Overcast  
Wind Chill: 28°   Ceiling: 1600
Heat Index: 28°   Visibility: 8mi
Dew Point: 27°   Wind: 0mph
Humidity: 93%   Direction: NA
Pressure: 30.27"   Gusts: NA
Location:  41.73°N, 93.6°W
Report Text: KIKV 191235Z AUTO 00000KT 8SM OVC016 M02/M03 A3027 RMK AO2
Loading
Personal Weather Stations






























Interactive Weather Map New forecast layout! Learn more

10-Day Weather Forecast

Advertisements
Track Severe Weather on mobile